sensor_id;sensor_type;location;lat;lon;timestamp;pressure;altitude;pressure_sealevel;temperature;humidity
35910;BME280;22004;49.120;-0.200;2023-02-26T00:01:32;101615.91;;;7.61;59.83
35910;BME280;22004;49.120;-0.200;2023-02-26T00:04:00;101617.25;;;8.33;61.31
35910;BME280;22004;49.120;-0.200;2023-02-26T00:06:27;101607.34;;;7.96;60.62
35910;BME280;22004;49.120;-0.200;2023-02-26T00:08:52;101617.47;;;8.12;61.77
35910;BME280;22004;49.120;-0.200;2023-02-26T00:11:18;101618.41;;;8.20;60.87
35910;BME280;22004;49.120;-0.200;2023-02-26T00:13:44;101620.97;;;8.02;62.87
35910;BME280;22004;49.120;-0.200;2023-02-26T00:16:29;101625.97;;;8.35;61.62
35910;BME280;22004;49.120;-0.200;2023-02-26T00:18:57;101636.19;;;7.83;61.20
35910;BME280;22004;49.120;-0.200;2023-02-26T00:21:24;101640.09;;;8.37;61.88
35910;BME280;22004;49.120;-0.200;2023-02-26T00:23:50;101639.94;;;8.38;60.63
35910;BME280;22004;49.120;-0.200;2023-02-26T00:26:15;101641.53;;;7.63;61.23
35910;BME280;22004;49.120;-0.200;2023-02-26T00:28:41;101628.44;;;7.99;62.50
35910;BME280;22004;49.120;-0.200;2023-02-26T00:31:07;101637.19;;;7.91;62.33
35910;BME280;22004;49.120;-0.200;2023-02-26T00:33:32;101639.44;;;7.96;62.17
35910;BME280;22004;49.120;-0.200;2023-02-26T00:38:33;101638.53;;;8.24;61.51
35910;BME280;22004;49.120;-0.200;2023-02-26T00:41:00;101638.97;;;8.00;62.68
35910;BME280;22004;49.120;-0.200;2023-02-26T00:43:26;101635.00;;;8.34;61.47
35910;BME280;22004;49.120;-0.200;2023-02-26T00:49:07;101644.63;;;8.17;62.20
35910;BME280;22004;49.120;-0.200;2023-02-26T00:51:55;101648.28;;;8.25;61.79
35910;BME280;22004;49.120;-0.200;2023-02-26T00:54:26;101650.94;;;8.25;61.64
35910;BME280;22004;49.120;-0.200;2023-02-26T00:56:53;101657.28;;;8.05;62.49
35910;BME280;22004;49.120;-0.200;2023-02-26T00:59:20;101653.06;;;8.12;62.00
35910;BME280;22004;49.120;-0.200;2023-02-26T01:01:45;101651.66;;;8.18;62.30
35910;BME280;22004;49.120;-0.200;2023-02-26T01:04:12;101647.56;;;8.14;62.66
35910;BME280;22004;49.120;-0.200;2023-02-26T01:06:43;101655.59;;;8.14;62.29
35910;BME280;22004;49.120;-0.200;2023-02-26T01:11:41;101659.41;;;8.01;62.47
35910;BME280;22004;49.120;-0.200;2023-02-26T01:14:07;101654.34;;;7.89;62.74
35910;BME280;22004;49.120;-0.200;2023-02-26T01:22:08;101670.38;;;7.98;62.17
35910;BME280;22004;49.120;-0.200;2023-02-26T01:24:35;101670.22;;;7.81;61.41
35910;BME280;22004;49.120;-0.200;2023-02-26T01:27:01;101675.03;;;7.96;62.62
35910;BME280;22004;49.120;-0.200;2023-02-26T01:29:27;101672.28;;;7.38;59.16
35910;BME280;22004;49.120;-0.200;2023-02-26T01:34:23;101676.88;;;7.86;61.81
35910;BME280;22004;49.120;-0.200;2023-02-26T01:36:59;101674.31;;;7.85;61.36
35910;BME280;22004;49.120;-0.200;2023-02-26T01:39:39;101681.88;;;7.70;62.80
35910;BME280;22004;49.120;-0.200;2023-02-26T01:47:22;101680.22;;;7.69;62.42
35910;BME280;22004;49.120;-0.200;2023-02-26T01:49:51;101678.03;;;6.93;59.61
35910;BME280;22004;49.120;-0.200;2023-02-26T01:55:36;101672.78;;;8.11;61.70
35910;BME280;22004;49.120;-0.200;2023-02-26T01:58:01;101676.94;;;7.56;58.32
35910;BME280;22004;49.120;-0.200;2023-02-26T02:00:29;101677.94;;;7.55;60.29
35910;BME280;22004;49.120;-0.200;2023-02-26T02:02:54;101674.19;;;8.06;61.62
35910;BME280;22004;49.120;-0.200;2023-02-26T02:05:25;101670.94;;;8.02;61.26
35910;BME280;22004;49.120;-0.200;2023-02-26T02:07:52;101679.38;;;7.97;60.18
35910;BME280;22004;49.120;-0.200;2023-02-26T02:10:18;101677.97;;;8.03;61.70
35910;BME280;22004;49.120;-0.200;2023-02-26T02:15:20;101679.81;;;8.02;61.65
35910;BME280;22004;49.120;-0.200;2023-02-26T02:18:06;101675.50;;;7.32;60.10
35910;BME280;22004;49.120;-0.200;2023-02-26T02:23:29;101680.94;;;8.10;61.18
35910;BME280;22004;49.120;-0.200;2023-02-26T02:31:26;101684.72;;;7.78;61.92
35910;BME280;22004;49.120;-0.200;2023-02-26T02:33:59;101685.84;;;7.95;61.73
35910;BME280;22004;49.120;-0.200;2023-02-26T02:39:11;101684.72;;;7.88;61.54
35910;BME280;22004;49.120;-0.200;2023-02-26T02:41:46;101696.09;;;7.80;62.01
35910;BME280;22004;49.120;-0.200;2023-02-26T02:44:17;101703.19;;;7.81;61.26
35910;BME280;22004;49.120;-0.200;2023-02-26T02:46:45;101702.03;;;7.84;61.59
35910;BME280;22004;49.120;-0.200;2023-02-26T02:49:31;101706.13;;;7.78;61.62
35910;BME280;22004;49.120;-0.200;2023-02-26T02:52:20;101709.63;;;7.78;61.94
35910;BME280;22004;49.120;-0.200;2023-02-26T02:55:01;101707.38;;;7.84;61.37
35910;BME280;22004;49.120;-0.200;2023-02-26T02:57:35;101708.19;;;7.65;61.56
35910;BME280;22004;49.120;-0.200;2023-02-26T03:00:07;101707.97;;;7.97;61.56
35910;BME280;22004;49.120;-0.200;2023-02-26T03:02:52;101706.78;;;7.70;60.80
35910;BME280;22004;49.120;-0.200;2023-02-26T03:05:21;101709.78;;;7.77;61.28
35910;BME280;22004;49.120;-0.200;2023-02-26T03:07:55;101714.78;;;7.61;61.58
35910;BME280;22004;49.120;-0.200;2023-02-26T03:10:22;101716.66;;;7.80;61.29
35910;BME280;22004;49.120;-0.200;2023-02-26T03:12:47;101720.88;;;7.72;61.40
35910;BME280;22004;49.120;-0.200;2023-02-26T03:15:14;101722.75;;;7.91;61.37
35910;BME280;22004;49.120;-0.200;2023-02-26T03:20:28;101717.63;;;7.69;61.04
35910;BME280;22004;49.120;-0.200;2023-02-26T03:25:45;101721.94;;;7.50;61.45
35910;BME280;22004;49.120;-0.200;2023-02-26T03:28:30;101721.19;;;7.89;60.83
35910;BME280;22004;49.120;-0.200;2023-02-26T03:31:19;101720.75;;;7.84;60.88
35910;BME280;22004;49.120;-0.200;2023-02-26T03:34:04;101727.94;;;7.83;60.83
35910;BME280;22004;49.120;-0.200;2023-02-26T03:36:36;101729.91;;;7.91;60.70
35910;BME280;22004;49.120;-0.200;2023-02-26T03:39:19;101733.44;;;8.01;60.25
35910;BME280;22004;49.120;-0.200;2023-02-26T03:41:53;101743.13;;;7.83;59.85
35910;BME280;22004;49.120;-0.200;2023-02-26T03:44:29;101740.34;;;7.44;59.39
35910;BME280;22004;49.120;-0.200;2023-02-26T03:46:59;101745.69;;;8.03;60.55
35910;BME280;22004;49.120;-0.200;2023-02-26T03:49:31;101743.94;;;7.73;60.38
35910;BME280;22004;49.120;-0.200;2023-02-26T03:51:59;101746.09;;;7.99;60.06
35910;BME280;22004;49.120;-0.200;2023-02-26T03:54:33;101744.56;;;8.06;59.37
35910;BME280;22004;49.120;-0.200;2023-02-26T03:56:59;101753.84;;;8.02;59.45
35910;BME280;22004;49.120;-0.200;2023-02-26T03:59:25;101748.63;;;8.00;59.44
35910;BME280;22004;49.120;-0.200;2023-02-26T04:01:55;101745.50;;;7.95;59.48
35910;BME280;22004;49.120;-0.200;2023-02-26T04:04:25;101751.75;;;7.96;59.46
35910;BME280;22004;49.120;-0.200;2023-02-26T04:06:53;101744.97;;;7.92;59.29
35910;BME280;22004;49.120;-0.200;2023-02-26T04:09:20;101751.16;;;7.92;59.84
35910;BME280;22004;49.120;-0.200;2023-02-26T04:11:47;101760.75;;;7.45;61.29
35910;BME280;22004;49.120;-0.200;2023-02-26T04:14:13;101757.47;;;7.82;59.60
35910;BME280;22004;49.120;-0.200;2023-02-26T04:16:39;101760.97;;;7.72;60.04
35910;BME280;22004;49.120;-0.200;2023-02-26T04:19:05;101767.59;;;7.78;59.67
35910;BME280;22004;49.120;-0.200;2023-02-26T04:21:30;101764.50;;;7.83;58.97
35910;BME280;22004;49.120;-0.200;2023-02-26T04:23:56;101761.28;;;7.89;59.26
35910;BME280;22004;49.120;-0.200;2023-02-26T04:26:21;101757.56;;;7.70;60.01
35910;BME280;22004;49.120;-0.200;2023-02-26T04:28:46;101753.63;;;7.65;60.08
35910;BME280;22004;49.120;-0.200;2023-02-26T04:31:12;101760.94;;;7.63;59.83
35910;BME280;22004;49.120;-0.200;2023-02-26T04:33:37;101767.09;;;7.54;60.23
35910;BME280;22004;49.120;-0.200;2023-02-26T04:36:03;101770.03;;;7.50;60.46
35910;BME280;22004;49.120;-0.200;2023-02-26T04:38:29;101767.09;;;7.54;59.95
35910;BME280;22004;49.120;-0.200;2023-02-26T04:40:54;101775.59;;;7.68;59.67
35910;BME280;22004;49.120;-0.200;2023-02-26T04:43:19;101775.00;;;7.65;60.16
35910;BME280;22004;49.120;-0.200;2023-02-26T04:45:46;101779.22;;;7.58;60.16
35910;BME280;22004;49.120;-0.200;2023-02-26T04:48:12;101779.03;;;7.49;59.58
35910;BME280;22004;49.120;-0.200;2023-02-26T04:50:38;101778.34;;;7.47;59.90
35910;BME280;22004;49.120;-0.200;2023-02-26T04:53:04;101782.00;;;7.46;59.57
35910;BME280;22004;49.120;-0.200;2023-02-26T04:55:29;101771.59;;;7.53;59.58
35910;BME280;22004;49.120;-0.200;2023-02-26T04:57:54;101784.97;;;7.53;59.85
35910;BME280;22004;49.120;-0.200;2023-02-26T05:00:20;101783.16;;;7.63;59.58
35910;BME280;22004;49.120;-0.200;2023-02-26T05:02:45;101788.22;;;7.57;59.82
35910;BME280;22004;49.120;-0.200;2023-02-26T05:05:11;101784.72;;;7.56;58.97
35910;BME280;22004;49.120;-0.200;2023-02-26T05:07:36;101789.19;;;7.56;59.65
35910;BME280;22004;49.120;-0.200;2023-02-26T05:10:04;101796.47;;;7.44;59.91
35910;BME280;22004;49.120;-0.200;2023-02-26T05:12:29;101803.50;;;7.45;59.78
35910;BME280;22004;49.120;-0.200;2023-02-26T05:14:55;101809.69;;;7.45;59.63
35910;BME280;22004;49.120;-0.200;2023-02-26T05:17:20;101813.13;;;7.57;60.04
35910;BME280;22004;49.120;-0.200;2023-02-26T05:19:45;101816.53;;;7.38;59.08
35910;BME280;22004;49.120;-0.200;2023-02-26T05:22:10;101811.25;;;7.48;60.07
35910;BME280;22004;49.120;-0.200;2023-02-26T05:24:36;101820.47;;;7.34;59.53
35910;BME280;22004;49.120;-0.200;2023-02-26T05:27:01;101821.63;;;7.41;59.57
35910;BME280;22004;49.120;-0.200;2023-02-26T05:29:27;101826.38;;;7.38;60.00
35910;BME280;22004;49.120;-0.200;2023-02-26T05:31:52;101822.53;;;7.51;60.20
35910;BME280;22004;49.120;-0.200;2023-02-26T05:34:18;101823.38;;;7.52;59.48
35910;BME280;22004;49.120;-0.200;2023-02-26T05:36:43;101827.19;;;7.59;59.11
35910;BME280;22004;49.120;-0.200;2023-02-26T05:39:08;101828.63;;;7.73;58.68
35910;BME280;22004;49.120;-0.200;2023-02-26T05:41:34;101833.09;;;7.63;59.10
35910;BME280;22004;49.120;-0.200;2023-02-26T05:43:59;101829.25;;;7.56;58.88
35910;BME280;22004;49.120;-0.200;2023-02-26T05:46:25;101829.69;;;7.51;58.97
35910;BME280;22004;49.120;-0.200;2023-02-26T05:48:50;101832.13;;;7.33;59.12
35910;BME280;22004;49.120;-0.200;2023-02-26T05:51:15;101833.03;;;7.43;59.77
35910;BME280;22004;49.120;-0.200;2023-02-26T05:53:41;101836.22;;;7.37;59.37
35910;BME280;22004;49.120;-0.200;2023-02-26T05:56:06;101833.66;;;7.26;59.21
35910;BME280;22004;49.120;-0.200;2023-02-26T05:58:32;101834.50;;;7.27;59.25
35910;BME280;22004;49.120;-0.200;2023-02-26T06:00:58;101841.25;;;7.31;59.00
35910;BME280;22004;49.120;-0.200;2023-02-26T06:03:24;101841.78;;;7.55;59.38
35910;BME280;22004;49.120;-0.200;2023-02-26T06:05:49;101842.19;;;7.81;58.20
35910;BME280;22004;49.120;-0.200;2023-02-26T06:08:14;101840.91;;;7.85;58.15
35910;BME280;22004;49.120;-0.200;2023-02-26T06:10:41;101845.38;;;7.75;58.79
35910;BME280;22004;49.120;-0.200;2023-02-26T06:13:06;101833.03;;;7.84;58.13
35910;BME280;22004;49.120;-0.200;2023-02-26T06:15:31;101834.25;;;7.70;58.36
35910;BME280;22004;49.120;-0.200;2023-02-26T06:17:57;101841.88;;;7.74;58.34
35910;BME280;22004;49.120;-0.200;2023-02-26T06:20:22;101834.03;;;7.83;57.70
35910;BME280;22004;49.120;-0.200;2023-02-26T06:22:47;101851.50;;;7.87;57.05
35910;BME280;22004;49.120;-0.200;2023-02-26T06:25:13;101854.03;;;7.88;57.81
35910;BME280;22004;49.120;-0.200;2023-02-26T06:27:38;101856.03;;;7.96;58.19
35910;BME280;22004;49.120;-0.200;2023-02-26T06:30:04;101864.53;;;7.80;58.04
35910;BME280;22004;49.120;-0.200;2023-02-26T06:32:29;101867.00;;;7.62;58.66
35910;BME280;22004;49.120;-0.200;2023-02-26T06:34:55;101877.25;;;7.88;58.06
35910;BME280;22004;49.120;-0.200;2023-02-26T06:37:20;101886.41;;;7.95;57.16
35910;BME280;22004;49.120;-0.200;2023-02-26T06:39:45;101888.88;;;7.25;58.54
35910;BME280;22004;49.120;-0.200;2023-02-26T06:42:11;101903.72;;;7.91;57.80
35910;BME280;22004;49.120;-0.200;2023-02-26T06:44:36;101894.00;;;7.99;57.30
35910;BME280;22004;49.120;-0.200;2023-02-26T06:47:01;101897.00;;;8.06;57.00
35910;BME280;22004;49.120;-0.200;2023-02-26T06:49:27;101900.38;;;8.08;57.08
35910;BME280;22004;49.120;-0.200;2023-02-26T06:51:52;101909.94;;;8.01;57.07
35910;BME280;22004;49.120;-0.200;2023-02-26T06:54:18;101912.06;;;8.07;57.34
35910;BME280;22004;49.120;-0.200;2023-02-26T06:56:43;101916.44;;;8.08;57.12
35910;BME280;22004;49.120;-0.200;2023-02-26T06:59:08;101923.63;;;8.08;56.95
35910;BME280;22004;49.120;-0.200;2023-02-26T07:01:34;101925.84;;;8.02;56.85
35910;BME280;22004;49.120;-0.200;2023-02-26T07:03:59;101933.03;;;8.02;56.97
35910;BME280;22004;49.120;-0.200;2023-02-26T07:06:25;101932.75;;;8.05;57.40
35910;BME280;22004;49.120;-0.200;2023-02-26T07:08:50;101926.09;;;7.99;56.98
35910;BME280;22004;49.120;-0.200;2023-02-26T07:11:15;101938.50;;;8.00;57.47
35910;BME280;22004;49.120;-0.200;2023-02-26T07:13:41;101939.88;;;7.95;57.39
35910;BME280;22004;49.120;-0.200;2023-02-26T07:16:06;101939.63;;;7.98;57.24
35910;BME280;22004;49.120;-0.200;2023-02-26T07:18:33;101953.13;;;7.96;57.38
35910;BME280;22004;49.120;-0.200;2023-02-26T07:20:59;101947.38;;;8.01;57.53
35910;BME280;22004;49.120;-0.200;2023-02-26T07:23:24;101953.59;;;8.01;57.80
35910;BME280;22004;49.120;-0.200;2023-02-26T07:25:50;101944.81;;;7.99;57.34
35910;BME280;22004;49.120;-0.200;2023-02-26T07:28:15;101946.41;;;8.02;57.08
35910;BME280;22004;49.120;-0.200;2023-02-26T07:30:40;101949.41;;;8.18;56.88
35910;BME280;22004;49.120;-0.200;2023-02-26T07:33:07;101949.84;;;8.23;56.71
35910;BME280;22004;49.120;-0.200;2023-02-26T07:35:32;101951.72;;;8.33;56.75
35910;BME280;22004;49.120;-0.200;2023-02-26T07:37:58;101955.69;;;8.38;56.92
35910;BME280;22004;49.120;-0.200;2023-02-26T07:40:23;101948.97;;;8.53;56.15
35910;BME280;22004;49.120;-0.200;2023-02-26T07:42:49;101953.75;;;8.50;56.34
35910;BME280;22004;49.120;-0.200;2023-02-26T07:45:14;101967.72;;;8.53;55.97
35910;BME280;22004;49.120;-0.200;2023-02-26T07:47:42;101970.84;;;9.55;51.81
35910;BME280;22004;49.120;-0.200;2023-02-26T07:50:08;101963.91;;;9.63;52.26
35910;BME280;22004;49.120;-0.200;2023-02-26T07:52:34;101968.31;;;9.35;53.41
35910;BME280;22004;49.120;-0.200;2023-02-26T07:55:00;101973.81;;;9.43;53.90
35910;BME280;22004;49.120;-0.200;2023-02-26T07:57:25;101981.19;;;9.12;53.73
35910;BME280;22004;49.120;-0.200;2023-02-26T07:59:51;101979.19;;;8.85;54.86
35910;BME280;22004;49.120;-0.200;2023-02-26T08:02:16;101976.75;;;8.62;55.65
35910;BME280;22004;49.120;-0.200;2023-02-26T08:04:42;101986.00;;;8.48;55.43
35910;BME280;22004;49.120;-0.200;2023-02-26T08:07:07;101986.63;;;8.62;56.07
35910;BME280;22004;49.120;-0.200;2023-02-26T08:09:33;101981.28;;;8.71;55.95
35910;BME280;22004;49.120;-0.200;2023-02-26T08:11:58;101979.16;;;9.62;53.95
35910;BME280;22004;49.120;-0.200;2023-02-26T08:14:24;101984.44;;;11.37;49.42
35910;BME280;22004;49.120;-0.200;2023-02-26T08:16:49;101991.88;;;10.72;50.20
35910;BME280;22004;49.120;-0.200;2023-02-26T08:19:17;101999.78;;;9.23;54.24
35910;BME280;22004;49.120;-0.200;2023-02-26T08:21:42;101998.84;;;11.10;49.38
35910;BME280;22004;49.120;-0.200;2023-02-26T08:24:10;101998.22;;;11.16;50.26
35910;BME280;22004;49.120;-0.200;2023-02-26T08:26:36;102001.53;;;10.00;48.25
35910;BME280;22004;49.120;-0.200;2023-02-26T08:29:02;102002.34;;;10.75;50.95
35910;BME280;22004;49.120;-0.200;2023-02-26T08:31:27;102006.28;;;9.11;50.70
35910;BME280;22004;49.120;-0.200;2023-02-26T08:33:53;102009.41;;;10.94;50.91
35910;BME280;22004;49.120;-0.200;2023-02-26T08:36:18;102000.69;;;10.64;50.00
35910;BME280;22004;49.120;-0.200;2023-02-26T08:38:46;102002.75;;;9.29;52.10
35910;BME280;22004;49.120;-0.200;2023-02-26T08:41:11;102010.78;;;9.49;52.95
35910;BME280;22004;49.120;-0.200;2023-02-26T08:43:37;102007.78;;;8.84;52.16
35910;BME280;22004;49.120;-0.200;2023-02-26T08:46:02;102001.63;;;9.32;49.22
35910;BME280;22004;49.120;-0.200;2023-02-26T08:48:27;102016.28;;;8.49;53.17
35910;BME280;22004;49.120;-0.200;2023-02-26T08:50:53;102014.72;;;8.37;53.44
35910;BME280;22004;49.120;-0.200;2023-02-26T08:53:18;102018.94;;;7.88;51.58
35910;BME280;22004;49.120;-0.200;2023-02-26T08:55:50;102017.06;;;8.61;52.28
35910;BME280;22004;49.120;-0.200;2023-02-26T08:58:16;102027.91;;;8.69;53.35
35910;BME280;22004;49.120;-0.200;2023-02-26T09:00:41;102029.53;;;8.91;48.93
35910;BME280;22004;49.120;-0.200;2023-02-26T09:03:07;102037.31;;;9.32;49.91
35910;BME280;22004;49.120;-0.200;2023-02-26T09:05:32;102042.09;;;9.19;49.26
35910;BME280;22004;49.120;-0.200;2023-02-26T09:07:57;102054.94;;;9.54;49.86
35910;BME280;22004;49.120;-0.200;2023-02-26T09:10:23;102056.44;;;8.99;50.59
35910;BME280;22004;49.120;-0.200;2023-02-26T09:12:48;102043.13;;;8.68;50.69
35910;BME280;22004;49.120;-0.200;2023-02-26T09:15:14;102044.06;;;8.48;48.16
35910;BME280;22004;49.120;-0.200;2023-02-26T09:17:39;102055.66;;;8.68;51.09
35910;BME280;22004;49.120;-0.200;2023-02-26T09:20:06;102049.59;;;8.56;51.54
35910;BME280;22004;49.120;-0.200;2023-02-26T09:22:33;102047.06;;;8.34;49.16
35910;BME280;22004;49.120;-0.200;2023-02-26T09:24:58;102049.59;;;9.25;51.68
35910;BME280;22004;49.120;-0.200;2023-02-26T09:27:24;102066.63;;;8.95;51.41
35910;BME280;22004;49.120;-0.200;2023-02-26T09:29:49;102067.38;;;8.36;50.40
35910;BME280;22004;49.120;-0.200;2023-02-26T09:32:15;102062.88;;;8.77;51.08
35910;BME280;22004;49.120;-0.200;2023-02-26T09:34:40;102056.53;;;8.78;50.86
35910;BME280;22004;49.120;-0.200;2023-02-26T09:37:07;102070.50;;;8.72;50.61
35910;BME280;22004;49.120;-0.200;2023-02-26T09:39:33;102068.38;;;7.51;51.25
35910;BME280;22004;49.120;-0.200;2023-02-26T09:44:35;102071.97;;;8.95;50.26
35910;BME280;22004;49.120;-0.200;2023-02-26T09:47:13;102073.16;;;7.37;49.24
35910;BME280;22004;49.120;-0.200;2023-02-26T09:49:49;102086.09;;;7.73;50.81
35910;BME280;22004;49.120;-0.200;2023-02-26T09:52:34;102074.28;;;8.39;50.08
35910;BME280;22004;49.120;-0.200;2023-02-26T09:55:12;102075.94;;;9.11;52.41
35910;BME280;22004;49.120;-0.200;2023-02-26T09:57:44;102080.34;;;8.71;49.47
35910;BME280;22004;49.120;-0.200;2023-02-26T10:00:17;102073.44;;;8.78;48.64
35910;BME280;22004;49.120;-0.200;2023-02-26T10:05:42;102084.81;;;9.11;47.80
35910;BME280;22004;49.120;-0.200;2023-02-26T10:08:15;102081.69;;;8.35;44.14
35910;BME280;22004;49.120;-0.200;2023-02-26T10:13:42;102084.19;;;8.48;41.55
35910;BME280;22004;49.120;-0.200;2023-02-26T10:16:13;102084.00;;;8.40;44.16
35910;BME280;22004;49.120;-0.200;2023-02-26T10:18:46;102100.72;;;7.90;43.38
35910;BME280;22004;49.120;-0.200;2023-02-26T10:21:18;102098.69;;;8.76;45.95
35910;BME280;22004;49.120;-0.200;2023-02-26T10:23:52;102087.41;;;8.21;42.85
35910;BME280;22004;49.120;-0.200;2023-02-26T10:26:31;102090.66;;;8.24;41.15
35910;BME280;22004;49.120;-0.200;2023-02-26T10:31:36;102096.16;;;8.44;41.47
35910;BME280;22004;49.120;-0.200;2023-02-26T10:39:46;102092.41;;;8.56;46.43
35910;BME280;22004;49.120;-0.200;2023-02-26T10:42:26;102103.38;;;8.32;42.24
35910;BME280;22004;49.120;-0.200;2023-02-26T10:47:56;102095.13;;;8.66;43.04
35910;BME280;22004;49.120;-0.200;2023-02-26T10:50:25;102106.97;;;8.73;42.74
35910;BME280;22004;49.120;-0.200;2023-02-26T10:52:52;102100.25;;;8.48;43.68
35910;BME280;22004;49.120;-0.200;2023-02-26T10:55:29;102099.38;;;8.78;43.56
35910;BME280;22004;49.120;-0.200;2023-02-26T10:58:13;102121.28;;;8.32;40.59
35910;BME280;22004;49.120;-0.200;2023-02-26T11:00:41;102106.91;;;8.53;42.03
35910;BME280;22004;49.120;-0.200;2023-02-26T11:03:20;102114.25;;;8.92;41.64
35910;BME280;22004;49.120;-0.200;2023-02-26T11:05:46;102107.38;;;8.68;40.54
35910;BME280;22004;49.120;-0.200;2023-02-26T11:08:22;102111.53;;;8.82;41.50
35910;BME280;22004;49.120;-0.200;2023-02-26T11:10:57;102108.03;;;8.09;37.04
35910;BME280;22004;49.120;-0.200;2023-02-26T11:13:30;102116.16;;;7.66;36.80
35910;BME280;22004;49.120;-0.200;2023-02-26T11:15:58;102140.22;;;7.66;36.00
35910;BME280;22004;49.120;-0.200;2023-02-26T11:18:40;102128.28;;;7.70;39.43
35910;BME280;22004;49.120;-0.200;2023-02-26T11:21:07;102124.88;;;8.42;37.34
35910;BME280;22004;49.120;-0.200;2023-02-26T11:23:33;102134.13;;;8.17;39.54
35910;BME280;22004;49.120;-0.200;2023-02-26T11:26:05;102125.91;;;8.09;40.02
35910;BME280;22004;49.120;-0.200;2023-02-26T11:28:33;102135.03;;;8.78;40.63
35910;BME280;22004;49.120;-0.200;2023-02-26T11:31:08;102138.97;;;7.70;41.42
35910;BME280;22004;49.120;-0.200;2023-02-26T11:33:38;102145.63;;;8.08;41.03
35910;BME280;22004;49.120;-0.200;2023-02-26T11:36:25;102157.38;;;8.37;38.31
35910;BME280;22004;49.120;-0.200;2023-02-26T11:38:57;102155.22;;;8.31;37.38
35910;BME280;22004;49.120;-0.200;2023-02-26T11:41:26;102141.41;;;7.94;35.72
35910;BME280;22004;49.120;-0.200;2023-02-26T11:44:04;102164.66;;;8.35;38.81
35910;BME280;22004;49.120;-0.200;2023-02-26T11:46:37;102164.78;;;8.13;34.72
35910;BME280;22004;49.120;-0.200;2023-02-26T11:49:07;102162.19;;;8.22;37.10
35910;BME280;22004;49.120;-0.200;2023-02-26T11:51:35;102145.41;;;7.99;35.91
35910;BME280;22004;49.120;-0.200;2023-02-26T11:54:00;102165.88;;;8.10;35.87
35910;BME280;22004;49.120;-0.200;2023-02-26T11:56:38;102169.44;;;8.52;37.28
35910;BME280;22004;49.120;-0.200;2023-02-26T11:59:14;102159.47;;;7.81;37.02
35910;BME280;22004;49.120;-0.200;2023-02-26T12:01:41;102156.25;;;8.91;41.37
35910;BME280;22004;49.120;-0.200;2023-02-26T12:04:10;102162.47;;;8.61;36.07
35910;BME280;22004;49.120;-0.200;2023-02-26T12:06:36;102157.63;;;8.86;40.55
35910;BME280;22004;49.120;-0.200;2023-02-26T12:09:02;102156.31;;;8.70;40.73
35910;BME280;22004;49.120;-0.200;2023-02-26T12:17:06;102161.88;;;7.84;37.70
35910;BME280;22004;49.120;-0.200;2023-02-26T12:19:39;102168.09;;;7.84;38.06
35910;BME280;22004;49.120;-0.200;2023-02-26T12:22:16;102163.81;;;7.93;38.97
35910;BME280;22004;49.120;-0.200;2023-02-26T12:25:20;102162.25;;;8.32;38.64
35910;BME280;22004;49.120;-0.200;2023-02-26T12:53:04;102145.59;;;7.87;38.12
35910;BME280;22004;49.120;-0.200;2023-02-26T13:07:35;102145.69;;;8.17;36.65
35910;BME280;22004;49.120;-0.200;2023-02-26T13:15:26;102146.16;;;8.74;40.13
35910;BME280;22004;49.120;-0.200;2023-02-26T13:20:59;102140.50;;;8.67;36.27
35910;BME280;22004;49.120;-0.200;2023-02-26T13:23:32;102147.03;;;9.24;35.13
35910;BME280;22004;49.120;-0.200;2023-02-26T13:26:05;102159.44;;;8.75;36.77
35910;BME280;22004;49.120;-0.200;2023-02-26T13:31:00;102158.00;;;8.71;34.49
35910;BME280;22004;49.120;-0.200;2023-02-26T13:33:30;102153.63;;;8.49;37.59
35910;BME280;22004;49.120;-0.200;2023-02-26T13:35:56;102152.41;;;8.53;36.58
35910;BME280;22004;49.120;-0.200;2023-02-26T13:44:08;102160.41;;;8.33;36.23
35910;BME280;22004;49.120;-0.200;2023-02-26T13:49:54;102159.00;;;8.08;33.98
35910;BME280;22004;49.120;-0.200;2023-02-26T13:52:29;102157.59;;;8.76;34.14
35910;BME280;22004;49.120;-0.200;2023-02-26T13:54:55;102163.66;;;8.47;33.19
35910;BME280;22004;49.120;-0.200;2023-02-26T14:00:32;102167.38;;;8.56;32.74
35910;BME280;22004;49.120;-0.200;2023-02-26T14:03:29;102153.19;;;8.65;34.60
35910;BME280;22004;49.120;-0.200;2023-02-26T14:06:09;102149.66;;;8.23;35.41
35910;BME280;22004;49.120;-0.200;2023-02-26T14:08:49;102161.56;;;8.82;38.46
35910;BME280;22004;49.120;-0.200;2023-02-26T14:11:41;102161.41;;;8.32;35.77
35910;BME280;22004;49.120;-0.200;2023-02-26T14:14:15;102149.06;;;8.40;37.14
35910;BME280;22004;49.120;-0.200;2023-02-26T14:16:44;102151.50;;;8.74;34.43
35910;BME280;22004;49.120;-0.200;2023-02-26T14:26:50;102160.88;;;8.59;38.19
35910;BME280;22004;49.120;-0.200;2023-02-26T14:32:32;102162.06;;;8.66;38.71
35910;BME280;22004;49.120;-0.200;2023-02-26T14:35:05;102165.41;;;8.16;32.93
35910;BME280;22004;49.120;-0.200;2023-02-26T14:37:35;102167.31;;;8.77;38.16
35910;BME280;22004;49.120;-0.200;2023-02-26T14:40:20;102161.63;;;8.40;36.12
35910;BME280;22004;49.120;-0.200;2023-02-26T14:43:01;102180.59;;;8.16;36.89
35910;BME280;22004;49.120;-0.200;2023-02-26T14:45:49;102179.66;;;8.68;38.98
35910;BME280;22004;49.120;-0.200;2023-02-26T14:48:21;102180.97;;;8.11;40.39
35910;BME280;22004;49.120;-0.200;2023-02-26T15:05:16;102170.78;;;8.05;37.52
35910;BME280;22004;49.120;-0.200;2023-02-26T15:11:01;102165.63;;;8.13;37.30
35910;BME280;22004;49.120;-0.200;2023-02-26T15:15:56;102171.38;;;8.29;41.15
35910;BME280;22004;49.120;-0.200;2023-02-26T15:23:40;102174.34;;;8.47;43.32
35910;BME280;22004;49.120;-0.200;2023-02-26T15:26:07;102164.00;;;8.64;43.09
35910;BME280;22004;49.120;-0.200;2023-02-26T15:28:39;102169.81;;;7.74;39.53
35910;BME280;22004;49.120;-0.200;2023-02-26T15:31:06;102169.75;;;7.96;43.42
35910;BME280;22004;49.120;-0.200;2023-02-26T15:33:33;102171.13;;;7.91;41.58
35910;BME280;22004;49.120;-0.200;2023-02-26T15:36:07;102171.09;;;7.59;40.52
35910;BME280;22004;49.120;-0.200;2023-02-26T15:38:48;102174.06;;;8.09;44.67
35910;BME280;22004;49.120;-0.200;2023-02-26T15:41:17;102168.59;;;7.35;40.63
35910;BME280;22004;49.120;-0.200;2023-02-26T15:44:07;102178.69;;;8.07;43.64
35910;BME280;22004;49.120;-0.200;2023-02-26T15:46:40;102177.31;;;7.91;43.55